createdAt,value
2017-09-26T03:32:37.282Z,94.50
2017-09-26T03:35:04.879Z,93.20
2017-09-26T03:37:32.542Z,93.20
2017-09-26T03:40:00.274Z,93.70
2017-09-26T03:42:27.870Z,93.80
2017-09-26T03:44:55.459Z,94.30
2017-09-26T03:47:24.050Z,94.80
2017-09-26T03:49:52.405Z,95.10
2017-09-26T03:52:20.094Z,95.10
2017-09-26T03:54:48.670Z,95.50
2017-09-26T03:57:17.026Z,95.50
2017-09-26T03:59:44.654Z,95.50
2017-09-26T04:02:12.266Z,96.50
2017-09-26T04:04:40.627Z,96.70
2017-09-26T04:07:08.213Z,96.60
2017-09-26T04:09:35.826Z,96.00
2017-09-26T04:12:03.445Z,95.40
2017-09-26T04:14:31.033Z,95.10
2017-09-26T04:16:58.665Z,94.50
2017-09-26T04:19:26.277Z,95.50
2017-09-26T04:21:53.899Z,95.10
2017-09-26T04:24:21.532Z,94.40
2017-09-26T04:26:49.225Z,94.90
2017-09-26T04:29:16.921Z,94.10
2017-09-26T04:31:44.806Z,94.90
2017-09-26T04:34:13.861Z,94.90
2017-09-26T04:36:41.453Z,94.90
2017-09-26T04:39:09.826Z,95.20
2017-09-26T04:41:38.185Z,95.20
2017-09-26T04:44:05.834Z,95.10
2017-09-26T04:46:34.188Z,95.90
2017-09-26T04:49:01.778Z,96.20
2017-09-26T04:51:29.401Z,96.00
2017-09-26T04:53:56.990Z,97.60
2017-09-26T04:56:24.581Z,96.00
2017-09-26T04:58:53.166Z,95.80
2017-09-26T05:01:21.523Z,94.80
2017-09-26T05:03:49.113Z,94.80
2017-09-26T05:06:16.739Z,94.60
2017-09-26T05:08:44.330Z,94.80
2017-09-26T05:11:11.925Z,95.30
2017-09-26T05:13:39.538Z,96.00
2017-09-26T05:16:07.894Z,96.10
2017-09-26T05:18:35.490Z,96.10
2017-09-26T05:21:03.106Z,96.70
2017-09-26T05:23:30.694Z,96.70
2017-09-26T05:25:59.077Z,94.90
2017-09-26T05:28:26.671Z,94.90
2017-09-26T05:30:54.286Z,94.10
2017-09-26T05:33:22.651Z,93.90
2017-09-26T05:35:51.042Z,94.70
2017-09-26T05:38:19.402Z,94.80
2017-09-26T05:40:46.993Z,94.80
2017-09-26T05:43:14.626Z,93.30
2017-09-26T05:45:42.989Z,93.70
2017-09-26T05:48:10.584Z,93.60
2017-09-26T05:50:38.229Z,94.00
2017-09-26T05:53:06.594Z,94.20
2017-09-26T05:55:34.957Z,93.30
2017-09-26T05:58:02.578Z,93.30
2017-09-26T06:00:30.170Z,93.80
2017-09-26T06:02:57.762Z,93.60
2017-09-26T06:05:26.318Z,93.20
2017-09-26T06:07:53.914Z,93.20
2017-09-26T06:10:21.507Z,93.20
2017-09-26T06:12:49.135Z,92.80
2017-09-26T06:15:16.730Z,92.70
2017-09-26T06:17:44.321Z,91.30
2017-09-26T06:20:11.938Z,92.50
2017-09-26T06:22:39.525Z,92.10
2017-09-26T06:25:07.118Z,91.40
2017-09-26T06:27:35.525Z,92.10
2017-09-26T06:30:03.122Z,92.10
2017-09-26T06:32:30.721Z,92.30
2017-09-26T06:34:58.338Z,92.40
2017-09-26T06:37:25.930Z,92.80
2017-09-26T06:39:54.318Z,91.70
2017-09-26T06:42:21.918Z,91.70
2017-09-26T06:44:49.553Z,92.00
2017-09-26T06:47:17.145Z,91.80
2017-09-26T06:49:44.738Z,91.10
2017-09-26T06:52:13.139Z,91.80
2017-09-26T06:54:40.734Z,91.80
2017-09-26T06:57:08.325Z,91.30
2017-09-26T06:59:35.954Z,91.00
2017-09-26T07:02:03.546Z,92.10
2017-09-26T07:04:31.910Z,92.30
2017-09-26T07:06:59.526Z,92.30
2017-09-26T07:09:27.123Z,91.70
2017-09-26T07:11:54.754Z,90.60
2017-09-26T07:14:22.346Z,91.00
2017-09-26T07:16:50.353Z,91.00
2017-09-26T07:19:17.955Z,91.20
2017-09-26T07:21:46.317Z,91.60
2017-09-26T07:24:13.934Z,91.70
2017-09-26T07:26:42.297Z,91.20
2017-09-26T07:29:09.946Z,91.20
2017-09-26T07:31:37.537Z,90.90
2017-09-26T07:34:05.901Z,91.60
2017-09-26T07:36:34.294Z,92.10
2017-09-26T07:39:01.886Z,92.00
2017-09-26T07:41:29.519Z,91.20
2017-09-26T07:43:57.114Z,91.10
2017-09-26T07:46:24.710Z,90.90
2017-09-26T07:48:53.097Z,92.00
2017-09-26T07:51:21.486Z,91.30
2017-09-26T07:53:49.078Z,91.30
2017-09-26T07:56:16.718Z,91.30
2017-09-26T07:58:44.306Z,91.40
2017-09-26T08:01:12.126Z,91.70
2017-09-26T08:03:40.782Z,91.80
2017-09-26T08:06:08.607Z,91.80
2017-09-26T08:08:36.489Z,91.90
2017-09-26T08:11:04.126Z,91.80
2017-09-26T08:13:31.713Z,92.00
2017-09-26T08:15:59.301Z,92.10
2017-09-26T08:18:26.929Z,92.30
2017-09-26T08:20:54.518Z,92.30
2017-09-26T08:23:22.109Z,92.80
2017-09-26T08:25:49.737Z,92.40
2017-09-26T08:28:17.330Z,92.30
2017-09-26T08:30:44.914Z,91.70
2017-09-26T08:33:12.833Z,92.10
2017-09-26T08:35:41.237Z,91.00
2017-09-26T08:38:08.822Z,91.00
2017-09-26T08:40:36.434Z,91.30
2017-09-26T08:43:04.786Z,91.00
2017-09-26T08:45:32.569Z,91.00
2017-09-26T08:48:00.925Z,90.80
2017-09-26T08:50:28.515Z,90.80
2017-09-26T08:52:56.893Z,90.50
2017-09-26T08:55:25.246Z,90.10
2017-09-26T08:57:52.873Z,90.10
2017-09-26T09:00:20.463Z,90.20
2017-09-26T09:02:48.050Z,90.00
2017-09-26T09:05:15.915Z,88.70
2017-09-26T09:07:43.614Z,88.00
2017-09-26T09:10:11.202Z,89.40
2017-09-26T09:12:39.086Z,89.40
2017-09-26T09:15:07.438Z,90.10
2017-09-26T09:17:35.044Z,90.10
2017-09-26T09:20:02.826Z,89.20
2017-09-26T09:22:30.410Z,89.30
2017-09-26T09:24:57.994Z,89.00
2017-09-26T09:27:26.378Z,88.20
2017-09-26T09:29:54.739Z,88.90
2017-09-26T09:32:22.373Z,88.90
2017-09-26T09:34:49.962Z,89.10
2017-09-26T09:37:17.549Z,88.10
2017-09-26T09:39:45.405Z,87.80
2017-09-26T09:42:13.765Z,87.10
2017-09-26T09:44:41.356Z,87.10
2017-09-26T09:47:08.983Z,87.20
2017-09-26T09:49:36.622Z,85.80
2017-09-26T09:52:04.221Z,88.50
2017-09-26T09:54:32.573Z,85.10
2017-09-26T09:57:00.222Z,85.10
2017-09-26T09:59:27.806Z,87.10
2017-09-26T10:01:56.165Z,83.30
2017-09-26T10:04:23.778Z,83.30
2017-09-26T10:06:51.365Z,83.50
2017-09-26T10:09:19.002Z,83.90
2017-09-26T10:11:46.589Z,83.70
2017-09-26T10:14:14.181Z,84.20
2017-09-26T10:16:42.569Z,83.70
2017-09-26T10:19:10.927Z,83.00
2017-09-26T10:21:39.480Z,83.90
2017-09-26T10:24:07.065Z,83.70
2017-09-26T10:26:35.428Z,83.50
2017-09-26T10:29:03.058Z,83.50
2017-09-26T10:31:30.641Z,82.30
2017-09-26T10:33:58.238Z,82.10
2017-09-26T10:36:26.637Z,84.00
2017-09-26T10:38:54.229Z,84.00
2017-09-26T10:41:21.814Z,84.80
2017-09-26T10:43:50.202Z,83.70
2017-09-26T10:46:18.554Z,83.50
2017-09-26T10:48:46.258Z,83.50
2017-09-26T10:51:13.870Z,84.60
2017-09-26T10:53:41.457Z,83.40
2017-09-26T10:56:10.038Z,82.00
2017-09-26T10:58:38.389Z,82.10
2017-09-26T11:01:05.978Z,82.00
2017-09-26T11:03:34.353Z,80.80
2017-09-26T11:06:02.706Z,80.40
2017-09-26T11:08:30.341Z,80.40
2017-09-26T11:10:57.925Z,80.50
2017-09-26T11:13:25.515Z,80.60
2017-09-26T11:15:54.077Z,79.90
2017-09-26T11:18:21.670Z,79.90
2017-09-26T11:20:49.266Z,81.10
2017-09-26T11:23:16.903Z,82.10
2017-09-26T11:25:44.495Z,81.70
2017-09-26T11:28:12.077Z,81.10
2017-09-26T11:30:39.794Z,80.00
2017-09-26T11:33:07.390Z,78.50
2017-09-26T11:35:34.982Z,78.20
2017-09-26T11:38:02.829Z,78.90
2017-09-26T11:40:31.186Z,79.30
2017-09-26T11:42:58.775Z,79.30
2017-09-26T11:45:27.354Z,79.60
2017-09-26T11:47:55.710Z,78.50
2017-09-26T11:50:23.306Z,78.40
2017-09-26T11:52:50.938Z,78.20
2017-09-26T11:55:19.294Z,79.80
2017-09-26T11:57:46.881Z,79.80
2017-09-26T12:00:15.471Z,79.40
2017-09-26T12:02:43.058Z,79.30
2017-09-26T12:05:10.653Z,79.90
2017-09-26T12:07:38.288Z,79.30
2017-09-26T12:10:05.902Z,79.50
2017-09-26T12:12:34.256Z,78.80
2017-09-26T12:15:01.916Z,78.80
2017-09-26T12:17:29.508Z,80.60
2017-09-26T12:19:57.093Z,78.70
2017-09-26T12:22:24.923Z,76.10
2017-09-26T12:24:53.287Z,75.80
2017-09-26T12:27:21.645Z,75.60
2017-09-26T12:29:49.279Z,76.10
2017-09-26T12:32:16.870Z,77.10
2017-09-26T12:34:44.462Z,77.30
2017-09-26T12:37:12.073Z,75.30
2017-09-26T12:39:39.662Z,78.00
2017-09-26T12:42:08.046Z,76.10
2017-09-26T12:44:36.394Z,76.90
2017-09-26T12:47:03.985Z,76.80
2017-09-26T12:49:32.357Z,77.20
2017-09-26T12:52:00.719Z,75.60
2017-09-26T12:54:28.365Z,75.50
2017-09-26T12:56:55.949Z,76.20
2017-09-26T12:59:24.305Z,77.50
2017-09-26T13:01:51.938Z,77.40
2017-09-26T13:04:19.526Z,75.80
2017-09-26T13:06:49.308Z,77.10
2017-09-26T13:09:17.570Z,76.20
2017-09-26T13:11:45.158Z,77.30
2017-09-26T13:14:12.749Z,77.80
2017-09-26T13:16:41.135Z,79.60
2017-09-26T13:19:08.734Z,79.50
2017-09-26T13:21:36.461Z,78.40
2017-09-26T13:24:04.054Z,77.90
2017-09-26T13:26:31.641Z,79.00
2017-09-26T13:28:59.253Z,80.30
2017-09-26T13:31:26.842Z,78.70
2017-09-26T13:33:54.421Z,79.10
2017-09-26T13:36:22.034Z,80.30
2017-09-26T13:38:49.815Z,79.50
2017-09-26T13:41:17.400Z,79.80
2017-09-26T13:43:44.995Z,79.80
2017-09-26T13:46:12.621Z,78.90
2017-09-26T13:48:40.225Z,80.00
2017-09-26T13:51:07.815Z,79.40
2017-09-26T13:53:35.425Z,79.50
2017-09-26T13:56:03.786Z,79.70
2017-09-26T13:58:32.145Z,78.70
2017-09-26T14:00:59.790Z,78.70
2017-09-26T14:03:28.144Z,79.60
2017-09-26T14:05:55.733Z,79.60
2017-09-26T14:08:23.347Z,79.20
2017-09-26T14:10:50.938Z,80.30
2017-09-26T14:13:18.525Z,79.90
2017-09-26T14:15:46.146Z,81.10
2017-09-26T14:18:13.733Z,81.00
2017-09-26T14:20:41.313Z,81.10
2017-09-26T14:23:09.701Z,81.60
2017-09-26T14:25:38.057Z,81.20
2017-09-26T14:28:05.689Z,81.20
2017-09-26T14:30:33.278Z,81.40
2017-09-26T14:33:00.870Z,80.80
2017-09-26T14:35:28.490Z,81.40
2017-09-26T14:37:56.078Z,80.70
2017-09-26T14:40:24.466Z,81.40
2017-09-26T14:42:52.049Z,81.30
2017-09-26T14:45:19.650Z,81.40
2017-09-26T14:47:47.383Z,81.80
2017-09-26T14:50:14.980Z,82.20
2017-09-26T14:52:42.573Z,81.60
2017-09-26T14:55:10.217Z,82.10
2017-09-26T14:57:38.578Z,81.40
2017-09-26T15:00:06.929Z,82.10
2017-09-26T15:02:34.577Z,81.70
2017-09-26T15:05:02.174Z,81.90
2017-09-26T15:07:30.534Z,82.20
2017-09-26T15:09:58.269Z,82.20
2017-09-26T15:12:25.861Z,82.30
2017-09-26T15:14:53.450Z,82.70
2017-09-26T15:17:21.066Z,82.60
2017-09-26T15:19:48.661Z,82.60
2017-09-26T15:22:17.019Z,81.60
2017-09-26T15:24:45.430Z,82.10
2017-09-26T15:27:13.074Z,82.10
2017-09-26T15:29:42.557Z,82.40
2017-09-26T15:32:10.189Z,82.40
2017-09-26T15:34:38.050Z,82.10
2017-09-26T15:37:05.638Z,82.80
2017-09-26T15:39:33.324Z,82.60
2017-09-26T15:42:03.437Z,83.70
2017-09-26T15:44:31.818Z,82.90
2017-09-26T15:47:00.181Z,83.30
2017-09-26T15:49:28.565Z,83.10
2017-09-26T15:51:56.951Z,85.00
2017-09-26T15:54:25.315Z,84.50
2017-09-26T15:56:53.714Z,85.00
2017-09-26T15:59:21.309Z,84.90
2017-09-26T16:01:48.894Z,86.00
2017-09-26T16:04:16.522Z,86.60
2017-09-26T16:06:44.109Z,86.40
2017-09-26T16:09:11.702Z,86.50
2017-09-26T16:11:40.181Z,88.00
2017-09-26T16:14:12.458Z,88.80
2017-09-26T16:16:40.218Z,88.80
2017-09-26T16:19:08.575Z,89.00
2017-09-26T16:21:36.926Z,88.20
2017-09-26T16:24:04.542Z,88.70
2017-09-26T16:26:32.130Z,89.20
2017-09-26T16:29:00.476Z,89.40
2017-09-26T16:31:28.326Z,89.60
2017-09-26T16:33:56.678Z,89.70
2017-09-26T16:36:24.269Z,89.70
2017-09-26T16:38:51.910Z,89.50
2017-09-26T16:41:20.263Z,90.10
2017-09-26T16:43:47.857Z,90.10
2017-09-26T16:46:16.233Z,90.50
2017-09-26T16:48:44.587Z,90.60
2017-09-26T16:51:12.173Z,90.60
2017-09-26T16:53:40.554Z,90.90
2017-09-26T16:56:08.147Z,90.90
2017-09-26T16:58:35.734Z,91.10
2017-09-26T17:01:03.350Z,91.30
2017-09-26T17:03:30.943Z,91.60
2017-09-26T17:05:58.535Z,91.60
2017-09-26T17:08:27.122Z,91.20
2017-09-26T17:10:55.478Z,91.40
2017-09-26T17:13:23.078Z,91.40
2017-09-26T17:15:50.890Z,91.50
2017-09-26T17:18:18.530Z,91.60
2017-09-26T17:20:46.117Z,91.30
2017-09-26T17:23:14.105Z,91.10
2017-09-26T17:25:42.454Z,91.10
2017-09-26T17:28:10.059Z,91.10
2017-09-26T17:30:38.014Z,91.00
2017-09-26T17:33:05.609Z,91.30
2017-09-26T17:35:33.202Z,91.50
2017-09-26T17:38:00.834Z,91.50
2017-09-26T17:40:28.421Z,91.40
2017-09-26T17:42:56.062Z,91.40
2017-09-26T17:45:23.998Z,91.40
2017-09-26T17:47:51.586Z,91.60
2017-09-26T17:50:19.180Z,92.30
2017-09-26T17:52:47.563Z,92.60
2017-09-26T17:55:15.923Z,92.50
2017-09-26T17:57:43.562Z,92.50
2017-09-26T18:00:11.160Z,92.60
2017-09-26T18:02:39.518Z,92.50
2017-09-26T18:05:07.254Z,92.50
2017-09-26T18:07:34.850Z,92.50
2017-09-26T18:10:03.211Z,92.60
2017-09-26T18:12:30.858Z,92.60
2017-09-26T18:14:58.449Z,92.50
2017-09-26T18:17:26.811Z,93.20
2017-09-26T18:19:54.453Z,93.20
2017-09-26T18:22:22.050Z,93.20
2017-09-26T18:24:50.413Z,92.90
2017-09-26T18:27:18.030Z,92.90
2017-09-26T18:29:45.621Z,92.90
2017-09-26T18:32:13.266Z,93.10
2017-09-26T18:34:40.861Z,93.20
2017-09-26T18:37:09.221Z,92.70
2017-09-26T18:39:36.858Z,92.70
2017-09-26T18:42:04.454Z,93.00
2017-09-26T18:44:32.824Z,92.90
2017-09-26T18:47:00.614Z,92.90
2017-09-26T18:49:28.205Z,92.70
2017-09-26T18:51:55.795Z,93.20
2017-09-26T18:54:23.469Z,93.10
2017-09-26T18:56:51.065Z,92.90
2017-09-26T18:59:18.661Z,93.30
2017-09-26T19:01:46.278Z,92.40
2017-09-26T19:04:13.878Z,92.90
2017-09-26T19:06:41.510Z,92.80
2017-09-26T19:09:09.100Z,92.80
2017-09-26T19:11:36.693Z,93.50
2017-09-26T19:14:05.105Z,93.30
2017-09-26T19:16:32.694Z,93.30
2017-09-26T19:19:00.285Z,94.00
2017-09-26T19:21:28.762Z,92.70
2017-09-26T19:23:57.123Z,93.10
2017-09-26T19:26:24.723Z,93.10
2017-09-26T19:28:52.668Z,93.60
2017-09-26T19:31:21.025Z,93.40
2017-09-26T19:33:49.009Z,93.40
2017-09-26T19:36:17.394Z,92.60
2017-09-26T19:38:45.749Z,92.50
2017-09-26T19:41:13.343Z,92.50
2017-09-26T19:43:40.977Z,92.60
2017-09-26T19:46:08.565Z,93.40
2017-09-26T19:48:36.154Z,93.40
2017-09-26T19:51:03.770Z,93.30
2017-09-26T19:53:32.149Z,93.40
2017-09-26T19:56:00.705Z,93.00
2017-09-26T19:58:31.217Z,93.60
2017-09-26T20:00:58.877Z,93.60
2017-09-26T20:03:26.602Z,93.80
2017-09-26T20:05:54.197Z,93.60
2017-09-26T20:08:21.786Z,94.20
2017-09-26T20:10:49.574Z,93.20
2017-09-26T20:13:17.162Z,93.50
2017-09-26T20:15:44.831Z,93.80
2017-09-26T20:18:12.644Z,93.70
2017-09-26T20:20:41.026Z,95.40
2017-09-26T20:23:09.389Z,95.20
2017-09-26T20:25:37.003Z,95.20
2017-09-26T20:28:04.589Z,93.50
2017-09-26T20:30:32.397Z,94.30
2017-09-26T20:33:00.099Z,93.90
2017-09-26T20:35:27.686Z,94.60
2017-09-26T20:37:55.362Z,94.70
2017-09-26T20:40:23.722Z,94.40
2017-09-26T20:42:51.402Z,94.40
2017-09-26T20:45:20.086Z,94.90
2017-09-26T20:47:48.441Z,93.60
2017-09-26T20:50:16.125Z,93.50
2017-09-26T20:52:44.603Z,94.30
2017-09-26T20:55:12.987Z,93.60
2017-09-26T20:57:40.648Z,93.50
2017-09-26T21:00:08.434Z,94.40
2017-09-26T21:02:36.065Z,93.70
2017-09-26T21:05:04.415Z,94.10
2017-09-26T21:07:32.048Z,94.10
2017-09-26T21:09:59.654Z,94.80
2017-09-26T21:12:28.014Z,94.10
2017-09-26T21:14:55.664Z,94.10
2017-09-26T21:17:23.358Z,94.70
2017-09-26T21:19:51.733Z,94.40
2017-09-26T21:22:20.113Z,93.10
2017-09-26T21:24:48.490Z,94.10
2017-09-26T21:27:17.074Z,94.90
2017-09-26T21:29:45.434Z,95.10
2017-09-26T21:32:13.785Z,95.20
2017-09-26T21:34:41.486Z,95.10
2017-09-26T21:37:09.866Z,93.50
2017-09-26T21:39:38.222Z,94.30
2017-09-26T21:42:05.834Z,94.30
2017-09-26T21:44:33.454Z,95.30
2017-09-26T21:47:01.847Z,94.10
2017-09-26T21:49:30.213Z,93.80
2017-09-26T21:51:58.594Z,94.20
2017-09-26T21:54:27.073Z,94.80
2017-09-26T21:56:55.424Z,95.00
2017-09-26T21:59:23.010Z,95.00
2017-09-26T22:01:51.385Z,97.40
2017-09-26T22:04:19.862Z,96.60
2017-09-26T22:06:48.220Z,96.90
2017-09-26T22:09:15.847Z,96.90
2017-09-26T22:11:43.459Z,95.50
2017-09-26T22:14:11.830Z,96.10
2017-09-26T22:16:40.237Z,94.40
2017-09-26T22:19:07.874Z,94.30
2017-09-26T22:21:36.222Z,95.40
2017-09-26T22:24:04.603Z,95.90
2017-09-26T22:26:32.392Z,95.90
2017-09-26T22:29:00.742Z,95.60
